Time;durP1;ratioP1;P1;durP2;ratioP2;P2;SDS_P1;SDS_P2;PMS_P1;PMS_P2;Temp;Humidity;BMP_temperature;BMP_pressure;BME280_temperature;BME280_humidity;BME280_pressure;Samples;Min_cycle;Max_cycle;Signal;HPM_P1;HPM_P2
2021/03/02 00:01:57;;;;;;;86.50;49.60;;;;;;;5.10;69.49;100698.56;2178404;81;21292;-77
2021/03/02 00:04:58;;;;;;;89.57;50.93;;;;;;;4.50;70.33;100688.18;2179369;81;21256;-77
2021/03/02 00:07:59;;;;;;;89.63;46.87;;;;;;;4.10;70.96;100695.86;2178561;81;21443;-78
2021/03/02 00:11:00;;;;;;;100.87;50.47;;;;;;;3.83;71.57;100690.64;2178249;81;21173;-78
2021/03/02 00:14:03;;;;;;;85.87;43.93;;;;;;;3.59;72.22;100694.13;2179187;81;21146;-78
2021/03/02 00:17:04;;;;;;;83.47;45.03;;;;;;;3.38;72.92;100695.20;2179060;81;21145;-78
2021/03/02 00:20:05;;;;;;;82.30;45.20;;;;;;;3.20;73.42;100689.66;2178678;81;21169;-78
2021/03/02 00:23:06;;;;;;;101.00;51.40;;;;;;;3.06;73.76;100686.50;2178137;81;21130;-79
2021/03/02 00:26:07;;;;;;;97.40;52.57;;;;;;;3.01;74.13;100696.49;2178057;81;21280;-78
2021/03/02 00:29:08;;;;;;;94.63;48.83;;;;;;;2.91;74.48;100690.57;2177773;82;21106;-78
2021/03/02 00:32:09;;;;;;;96.17;49.37;;;;;;;2.81;74.90;100692.49;2178101;81;21125;-78
2021/03/02 00:35:10;;;;;;;101.20;51.90;;;;;;;2.75;75.43;100694.63;2178223;81;21118;-78
2021/03/02 00:38:11;;;;;;;97.90;49.07;;;;;;;2.65;75.64;100693.47;2178110;81;21169;-78
2021/03/02 00:41:12;;;;;;;134.00;77.60;;;;;;;2.59;75.53;100685.65;2179015;81;21255;-79
2021/03/02 00:44:14;;;;;;;97.57;53.33;;;;;;;3.50;82.45;100684.07;2178928;81;21126;-77
2021/03/02 00:47:15;;;;;;;99.07;54.27;;;;;;;4.92;75.59;100668.94;2178768;82;21476;-77
2021/03/02 00:50:16;;;;;;;92.80;49.43;;;;;;;4.24;72.46;100673.12;2178890;81;21130;-78
2021/03/02 00:53:17;;;;;;;93.10;50.27;;;;;;;3.71;73.02;100680.77;2178860;81;21130;-77
2021/03/02 00:56:18;;;;;;;98.77;50.73;;;;;;;3.35;73.71;100678.21;2178985;81;21118;-77
2021/03/02 00:59:19;;;;;;;92.03;46.67;;;;;;;3.08;74.09;100675.50;2178505;81;21167;-77
2021/03/02 01:02:20;;;;;;;90.20;48.67;;;;;;;2.91;74.80;100671.23;2178013;81;21894;-77
2021/03/02 01:05:21;;;;;;;89.03;47.43;;;;;;;2.75;75.17;100671.81;2177948;81;21142;-77
2021/03/02 01:08:22;;;;;;;80.93;42.80;;;;;;;2.59;76.23;100673.66;2179194;81;21138;-78
2021/03/02 01:11:26;;;;;;;100.10;50.53;;;;;;;2.48;76.53;100668.11;2178780;81;21165;-78
2021/03/02 01:14:28;;;;;;;84.72;43.83;;;;;;;2.39;76.78;100663.58;2178911;81;21154;-77
2021/03/02 01:17:29;;;;;;;86.00;44.70;;;;;;;2.36;76.90;100662.97;2150975;82;21154;-78
2021/03/02 01:20:30;;;;;;;106.27;50.33;;;;;;;2.31;77.21;100661.73;2179039;81;21184;-78
2021/03/02 01:23:37;;;;;;;90.90;47.00;;;;;;;2.24;77.11;100662.97;2179024;81;21452;-79
2021/03/02 01:26:38;;;;;;;97.80;47.00;;;;;;;2.20;77.56;100660.05;2179046;82;21153;-78
2021/03/02 01:29:40;;;;;;;107.60;50.33;;;;;;;2.13;77.56;100654.84;2178927;81;21299;-78
2021/03/02 01:32:41;;;;;;;91.70;43.70;;;;;;;2.16;77.48;100649.02;2178952;81;21416;-77
2021/03/02 01:35:42;;;;;;;100.10;45.53;;;;;;;2.19;77.64;100642.80;2178994;81;21402;-77
2021/03/02 01:38:45;;;;;;;195.00;109.80;;;;;;;2.17;77.84;100639.22;2180480;81;21510;-80
2021/03/02 01:41:46;;;;;;;141.03;72.90;;;;;;;4.72;89.14;100637.03;2179334;81;21129;-77
2021/03/02 01:44:47;;;;;;;81.90;44.03;;;;;;;6.73;72.28;100632.28;2178826;81;21209;-79
2021/03/02 01:47:48;;;;;;;76.17;38.60;;;;;;;5.23;70.71;100639.81;2179024;81;21161;-79
2021/03/02 01:50:49;;;;;;;83.13;38.03;;;;;;;4.01;72.00;100639.70;2178693;81;21146;-79
2021/03/02 01:53:50;;;;;;;75.40;39.40;;;;;;;3.42;73.55;100641.70;2179013;81;21223;-79
2021/03/02 01:56:51;;;;;;;66.63;35.27;;;;;;;3.01;74.39;100641.42;2178849;81;21403;-78
2021/03/02 01:59:52;;;;;;;143.33;81.40;;;;;;;2.74;75.18;100641.66;2179100;81;21142;-79
2021/03/02 02:02:55;;;;;;;213.37;130.40;;;;;;;2.65;82.19;100645.77;2179981;81;21102;-80
2021/03/02 02:05:56;;;;;;;115.13;62.10;;;;;;;6.27;88.21;100626.21;2179393;81;21566;-78
2021/03/02 02:08:57;;;;;;;88.23;44.83;;;;;;;7.13;72.07;100629.30;2179166;82;21134;-79
2021/03/02 02:11:59;;;;;;;81.53;41.90;;;;;;;5.64;69.60;100639.73;2163091;81;21543;-78
2021/03/02 02:15:00;;;;;;;77.77;40.63;;;;;;;4.55;70.32;100635.95;2161636;82;21147;-78
2021/03/02 02:18:01;;;;;;;73.30;37.60;;;;;;;3.65;71.91;100635.16;2161556;82;21139;-78
2021/03/02 02:21:02;;;;;;;86.93;43.63;;;;;;;3.06;73.65;100626.77;2161668;82;21432;-78
2021/03/02 02:24:03;;;;;;;94.77;43.87;;;;;;;2.76;74.96;100628.09;2161707;82;21170;-78
2021/03/02 02:27:04;;;;;;;76.97;38.47;;;;;;;2.62;75.34;100630.47;2161644;82;21294;-78
2021/03/02 02:30:05;;;;;;;85.27;43.57;;;;;;;2.40;75.80;100634.05;2161785;82;21260;-78
2021/03/02 02:33:07;;;;;;;89.17;44.13;;;;;;;2.25;76.60;100635.52;2161785;82;21245;-78
2021/03/02 02:36:08;;;;;;;78.37;38.83;;;;;;;2.08;77.18;100630.42;2161666;82;21228;-78
2021/03/02 02:39:09;;;;;;;76.83;39.03;;;;;;;1.90;78.00;100636.40;2161570;82;21174;-78
2021/03/02 02:42:10;;;;;;;103.70;44.20;;;;;;;1.82;77.46;100636.22;2161700;82;21174;-78
2021/03/02 02:45:11;;;;;;;96.77;43.10;;;;;;;1.79;78.42;100631.23;2161162;82;21257;-79
2021/03/02 02:48:12;;;;;;;91.53;41.53;;;;;;;1.74;79.35;100632.56;2161468;82;21265;-79
2021/03/02 02:51:13;;;;;;;93.80;41.37;;;;;;;1.67;78.69;100637.61;2161629;82;21134;-79
2021/03/02 02:54:14;;;;;;;100.93;44.53;;;;;;;1.63;79.97;100635.59;2160790;82;21448;-78
2021/03/02 02:57:15;;;;;;;101.23;47.00;;;;;;;1.57;79.47;100641.56;2160637;82;21295;-78
2021/03/02 03:00:16;;;;;;;115.30;50.67;;;;;;;1.59;78.93;100637.42;2161066;82;21535;-79
2021/03/02 03:03:17;;;;;;;109.13;50.10;;;;;;;1.66;79.07;100636.21;2160438;82;21257;-78
2021/03/02 03:06:18;;;;;;;90.90;42.37;;;;;;;1.69;79.21;100638.62;2160699;82;21277;-77
2021/03/02 03:09:19;;;;;;;105.57;48.57;;;;;;;1.70;79.44;100627.94;2161570;82;21257;-80
2021/03/02 03:12:20;;;;;;;102.63;49.20;;;;;;;1.71;79.69;100630.63;2161938;82;21162;-78
2021/03/02 03:15:21;;;;;;;118.43;54.07;;;;;;;1.67;79.78;100627.31;2161722;82;21400;-77
2021/03/02 03:18:23;;;;;;;107.07;51.10;;;;;;;1.60;79.83;100626.35;2161401;82;21103;-79
2021/03/02 03:21:24;;;;;;;113.50;51.73;;;;;;;1.53;80.42;100629.24;2161771;82;21264;-78
2021/03/02 03:24:25;;;;;;;122.70;51.63;;;;;;;1.49;80.01;100632.37;2161768;82;21138;-79
2021/03/02 03:27:26;;;;;;;105.87;44.40;;;;;;;1.44;80.56;100633.30;2161623;82;21281;-78
2021/03/02 03:30:27;;;;;;;114.67;50.50;;;;;;;1.39;80.85;100629.87;2162039;82;21150;-78
2021/03/02 03:33:28;;;;;;;103.37;45.33;;;;;;;1.31;80.69;100632.25;2162120;82;21150;-77
2021/03/02 03:36:29;;;;;;;117.27;48.73;;;;;;;1.33;80.73;100633.27;2161517;82;21126;-77
2021/03/02 03:39:30;;;;;;;188.90;91.90;;;;;;;1.32;80.70;100626.33;2162172;82;21134;-81
2021/03/02 03:42:31;;;;;;;130.90;59.80;;;;;;;2.89;90.01;100614.38;2162008;82;21281;-78
2021/03/02 03:45:32;;;;;;;102.87;49.17;;;;;;;6.43;89.32;100608.52;2161599;82;21272;-77
2021/03/02 03:48:33;;;;;;;95.43;45.03;;;;;;;5.27;73.55;100610.31;2161991;82;21146;-79
2021/03/02 03:51:34;;;;;;;105.67;49.80;;;;;;;4.00;73.94;100617.23;2161707;82;21257;-77
2021/03/02 03:54:35;;;;;;;115.97;53.27;;;;;;;3.31;74.74;100616.45;2161026;82;21535;-78
2021/03/02 03:57:36;;;;;;;121.27;53.37;;;;;;;2.83;75.94;100618.70;2160929;82;21424;-78
2021/03/02 04:00:37;;;;;;;118.13;53.70;;;;;;;2.39;76.79;100623.23;2160909;82;21135;-78
2021/03/02 04:03:41;;;;;;;144.30;62.17;;;;;;;2.17;77.46;100623.36;2161155;82;21492;-78
2021/03/02 04:06:42;;;;;;;135.90;63.43;;;;;;;1.99;78.32;100631.03;2160845;82;21297;-78
2021/03/02 04:09:43;;;;;;;154.27;60.47;;;;;;;1.86;78.56;100625.36;2160872;81;21134;-80
2021/03/02 04:12:44;;;;;;;135.33;57.70;;;;;;;1.78;79.29;100623.00;2178683;81;21145;-79
2021/03/02 04:15:45;;;;;;;128.33;56.73;;;;;;;1.69;79.08;100625.75;2178979;82;21126;-78
2021/03/02 04:18:46;;;;;;;126.73;55.67;;;;;;;1.64;79.22;100624.52;2179473;81;21249;-79
2021/03/02 04:21:47;;;;;;;149.77;60.97;;;;;;;1.62;79.21;100619.64;2179104;81;21805;-80
2021/03/02 04:24:48;;;;;;;142.03;62.40;;;;;;;1.60;79.67;100614.77;2178333;81;21129;-78
2021/03/02 04:27:50;;;;;;;123.53;56.53;;;;;;;1.58;79.43;100627.52;2177947;81;21158;-80
2021/03/02 04:30:51;;;;;;;127.10;56.73;;;;;;;1.61;79.56;100626.86;2177737;81;21834;-78
2021/03/02 04:33:53;;;;;;;125.20;56.40;;;;;;;1.61;79.83;100625.57;2177990;81;21495;-78
2021/03/02 04:36:54;;;;;;;135.43;54.43;;;;;;;1.58;79.88;100626.63;2177302;81;21261;-78
2021/03/02 04:39:55;;;;;;;123.23;51.17;;;;;;;1.51;80.30;100625.27;2176881;81;21134;-78
2021/03/02 04:42:56;;;;;;;127.10;55.27;;;;;;;1.44;80.13;100623.41;2175588;81;21559;-76
2021/03/02 04:45:57;;;;;;;112.93;49.93;;;;;;;1.43;80.42;100629.33;2175405;81;21138;-77
2021/03/02 04:48:58;;;;;;;107.00;48.63;;;;;;;1.41;80.52;100620.59;2174576;81;21125;-78
2021/03/02 04:51:59;;;;;;;119.80;53.50;;;;;;;1.38;80.36;100618.69;2174450;81;21255;-78
2021/03/02 04:55:00;;;;;;;115.53;52.07;;;;;;;1.41;80.57;100618.02;2174841;81;21245;-77
2021/03/02 04:58:01;;;;;;;134.47;58.43;;;;;;;1.40;80.32;100616.23;2174195;81;21236;-77
2021/03/02 05:01:02;;;;;;;133.27;53.03;;;;;;;1.36;80.16;100612.53;2176741;81;21126;-80
2021/03/02 05:04:04;;;;;;;112.10;51.23;;;;;;;1.33;80.84;100614.87;2176794;81;21244;-80
2021/03/02 05:07:05;;;;;;;113.80;50.43;;;;;;;1.79;81.77;100605.09;2175609;82;21300;-79
2021/03/02 05:10:06;;;;;;;128.20;53.80;;;;;;;1.85;79.91;100601.69;2175026;81;21252;-78
2021/03/02 05:13:07;;;;;;;120.67;52.20;;;;;;;1.73;79.75;100598.17;2175438;81;21118;-77
2021/03/02 05:16:09;;;;;;;131.63;55.60;;;;;;;1.63;80.15;100596.98;2175731;82;21256;-79
2021/03/02 05:19:10;;;;;;;144.03;56.87;;;;;;;1.54;79.91;100595.00;2176299;81;21257;-79
2021/03/02 05:22:11;;;;;;;161.97;61.40;;;;;;;1.50;80.14;100593.88;2176240;81;21252;-79
2021/03/02 05:25:12;;;;;;;135.40;53.17;;;;;;;1.48;80.58;100591.97;2176307;81;21233;-76
2021/03/02 05:28:13;;;;;;;139.50;51.40;;;;;;;1.43;80.83;100589.44;2174948;81;21170;-79
2021/03/02 05:31:14;;;;;;;135.07;55.30;;;;;;;1.37;80.87;100590.27;2176432;81;21106;-80
2021/03/02 05:34:15;;;;;;;130.07;48.77;;;;;;;1.35;80.62;100586.29;2175158;81;21268;-77
2021/03/02 05:37:16;;;;;;;178.80;63.63;;;;;;;1.37;80.85;100583.83;2175410;81;21272;-78
2021/03/02 05:40:17;;;;;;;161.40;60.27;;;;;;;2.79;83.80;100571.56;2174741;81;21137;-81
2021/03/02 05:43:18;;;;;;;148.83;54.33;;;;;;;4.95;82.43;100570.79;2176363;81;21244;-80
2021/03/02 05:46:20;;;;;;;142.27;50.97;;;;;;;6.95;73.72;100560.39;2176882;82;21169;-79
2021/03/02 05:49:21;;;;;;;210.77;97.57;;;;;;;5.64;67.61;100556.42;2177719;81;21261;-80
2021/03/02 05:52:22;;;;;;;126.27;53.23;;;;;;;7.14;73.59;100559.66;2176858;81;21150;-81
2021/03/02 05:55:23;;;;;;;118.90;61.67;;;;;;;6.13;67.80;100555.82;2176989;81;21122;-79
2021/03/02 05:58:24;;;;;;;104.83;52.03;;;;;;;6.70;69.76;100551.26;2176551;81;21269;-79
2021/03/02 06:01:25;;;;;;;104.23;45.97;;;;;;;7.72;67.05;100556.16;2175868;81;21277;-80
2021/03/02 06:04:26;;;;;;;116.73;46.57;;;;;;;6.44;64.79;100562.31;2176012;81;21245;-79
2021/03/02 06:07:27;;;;;;;97.87;45.37;;;;;;;4.78;66.32;100572.34;2177084;81;21334;-81
2021/03/02 06:10:28;;;;;;;100.63;39.23;;;;;;;3.79;68.62;100584.42;2177733;81;21237;-81
2021/03/02 06:13:29;;;;;;;126.40;42.47;;;;;;;3.30;70.64;100576.34;2176904;81;21268;-80
2021/03/02 06:16:30;;;;;;;118.30;45.70;;;;;;;2.69;72.95;100579.84;2178004;81;21271;-82
2021/03/02 06:19:34;;;;;;;108.00;42.83;;;;;;;2.29;73.83;100583.42;2178014;81;21245;-80
2021/03/02 06:22:35;;;;;;;104.43;42.67;;;;;;;1.94;74.76;100577.39;2177124;81;21102;-80
2021/03/02 06:25:37;;;;;;;115.73;45.90;;;;;;;1.72;75.60;100579.64;2176994;81;21299;-81
2021/03/02 06:28:38;;;;;;;117.80;36.97;;;;;;;1.55;75.90;100575.81;2177104;81;21237;-79
2021/03/02 06:31:41;;;;;;;143.37;49.37;;;;;;;1.52;77.39;100587.17;2176607;82;21264;-81
2021/03/02 06:34:42;;;;;;;126.27;48.63;;;;;;;1.48;76.96;100583.86;2176508;81;21248;-80
2021/03/02 06:37:43;;;;;;;92.87;37.00;;;;;;;1.57;77.01;100581.08;2176198;81;21281;-81
2021/03/02 06:40:44;;;;;;;102.40;42.13;;;;;;;1.54;78.01;100583.42;2176350;81;21252;-78
2021/03/02 06:43:46;;;;;;;94.53;41.70;;;;;;;1.53;77.75;100586.78;2176998;81;22222;-80
2021/03/02 06:46:48;;;;;;;103.93;34.60;;;;;;;1.53;77.50;100591.92;2176325;81;21268;-79
2021/03/02 06:49:49;;;;;;;106.63;40.67;;;;;;;1.47;78.65;100585.92;2176293;81;21570;-79
2021/03/02 06:52:50;;;;;;;139.73;51.00;;;;;;;1.34;78.82;100585.78;2175469;81;21268;-78
2021/03/02 06:55:51;;;;;;;133.43;45.73;;;;;;;1.30;79.43;100598.30;2175440;82;21232;-78
2021/03/02 06:58:52;;;;;;;77.00;31.17;;;;;;;1.20;79.94;100614.32;2175330;82;21731;-78
2021/03/02 07:01:53;;;;;;;86.07;35.37;;;;;;;1.22;79.60;100607.62;2175568;81;21284;-79
2021/03/02 07:04:54;;;;;;;110.97;45.60;;;;;;;1.33;79.51;100602.39;2175420;81;21245;-78
2021/03/02 07:07:59;;;;;;;85.73;33.10;;;;;;;1.39;79.27;100613.15;2174494;82;21833;-79
2021/03/02 07:11:00;;;;;;;109.67;40.23;;;;;;;1.37;79.75;100609.56;2174501;81;21805;-80
2021/03/02 07:14:02;;;;;;;113.83;44.37;;;;;;;1.36;79.23;100620.24;2175453;82;21134;-79
2021/03/02 07:17:05;;;;;;;106.50;40.40;;;;;;;1.40;78.86;100612.37;2175897;81;21818;-79
2021/03/02 07:20:06;;;;;;;104.37;40.50;;;;;;;1.45;79.18;100609.36;2176063;82;21531;-79
2021/03/02 07:23:09;;;;;;;107.80;44.83;;;;;;;1.45;78.84;100613.61;2176878;81;21102;-78
2021/03/02 07:26:10;;;;;;;91.20;42.33;;;;;;;1.53;79.35;100611.23;2176979;81;21157;-78
2021/03/02 07:29:11;;;;;;;84.33;36.63;;;;;;;1.54;78.90;100619.06;2176198;81;21288;-79
2021/03/02 07:32:12;;;;;;;94.77;37.07;;;;;;;1.58;78.95;100617.62;2175078;81;21225;-78
2021/03/02 07:35:13;;;;;;;118.47;47.00;;;;;;;1.59;79.05;100616.84;2175370;81;21565;-79
2021/03/02 07:38:15;;;;;;;95.57;42.93;;;;;;;1.64;78.91;100608.17;2175961;81;21288;-78
2021/03/02 07:41:16;;;;;;;82.90;35.13;;;;;;;1.73;79.04;100608.47;2175712;82;21909;-79
2021/03/02 07:44:17;;;;;;;88.30;36.60;;;;;;;1.81;79.21;100609.97;2176816;81;21245;-80
2021/03/02 07:47:19;;;;;;;78.87;36.33;;;;;;;1.87;78.84;100610.81;2176619;81;21293;-80
2021/03/02 07:50:20;;;;;;;94.03;39.10;;;;;;;1.90;78.42;100611.94;2175896;81;21122;-78
2021/03/02 07:53:21;;;;;;;80.40;37.70;;;;;;;1.96;78.26;100613.17;2176759;81;21404;-80
2021/03/02 07:56:22;;;;;;;89.60;42.73;;;;;;;2.06;78.02;100617.82;2177232;82;21349;-79
2021/03/02 07:59:23;;;;;;;85.43;39.03;;;;;;;2.15;77.67;100624.04;2176340;81;21260;-80
2021/03/02 08:02:25;;;;;;;85.63;40.07;;;;;;;2.18;77.33;100625.55;2175749;81;21260;-81
2021/03/02 08:05:26;;;;;;;88.57;40.37;;;;;;;2.23;77.38;100626.78;2175435;81;21244;-80
2021/03/02 08:08:27;;;;;;;101.53;46.33;;;;;;;2.24;77.10;100624.31;2175537;81;21910;-78
2021/03/02 08:11:28;;;;;;;84.17;37.37;;;;;;;2.29;77.00;100610.48;2176428;81;21133;-79
2021/03/02 08:14:29;;;;;;;102.80;46.43;;;;;;;2.38;77.22;100616.69;2176447;81;21125;-79
2021/03/02 08:17:30;;;;;;;116.93;50.93;;;;;;;2.40;76.80;100636.63;2176071;82;21162;-80
2021/03/02 08:20:31;;;;;;;95.83;41.40;;;;;;;2.30;76.96;100628.13;2176208;81;21296;-80
2021/03/02 08:23:32;;;;;;;121.53;52.63;;;;;;;2.24;77.03;100628.19;2176137;81;21258;-79
2021/03/02 08:26:33;;;;;;;113.97;49.77;;;;;;;2.31;77.22;100635.97;2175418;81;21154;-79
2021/03/02 08:29:34;;;;;;;79.43;33.80;;;;;;;2.45;77.07;100637.86;2175815;81;21329;-80
2021/03/02 08:32:35;;;;;;;112.30;49.83;;;;;;;2.58;76.79;100638.74;2175475;81;21170;-79
2021/03/02 08:35:36;;;;;;;105.10;45.77;;;;;;;2.62;76.58;100639.50;2175444;81;21475;-78
2021/03/02 08:38:37;;;;;;;100.70;44.60;;;;;;;2.73;76.38;100634.71;2175876;81;21252;-79
2021/03/02 08:41:39;;;;;;;99.23;44.57;;;;;;;2.84;75.82;100629.92;2176182;81;21261;-79
2021/03/02 08:44:40;;;;;;;121.13;50.50;;;;;;;2.87;75.82;100633.61;2176119;81;21122;-80
2021/03/02 08:47:42;;;;;;;130.33;55.37;;;;;;;2.90;75.21;100636.80;2176319;81;21226;-79
2021/03/02 08:50:43;;;;;;;114.43;48.30;;;;;;;2.90;75.62;100638.09;2175931;81;21677;-80
2021/03/02 08:53:46;;;;;;;119.00;50.80;;;;;;;2.96;75.36;100631.17;2176740;81;21106;-81
2021/03/02 08:56:47;;;;;;;122.27;51.93;;;;;;;3.11;75.62;100639.59;2176289;81;21280;-81
2021/03/02 08:59:48;;;;;;;94.77;42.83;;;;;;;3.19;75.02;100638.83;2176627;81;21126;-79
2021/03/02 09:02:49;;;;;;;94.50;43.00;;;;;;;3.32;74.95;100633.72;2175111;81;21265;-80
2021/03/02 09:05:50;;;;;;;98.93;43.43;;;;;;;3.43;74.43;100621.55;2175362;81;21170;-80
2021/03/02 09:08:51;;;;;;;111.00;47.97;;;;;;;3.57;74.41;100607.92;2176669;81;21935;-81
2021/03/02 09:11:52;;;;;;;105.13;45.30;;;;;;;3.90;74.52;100604.50;2176631;81;21285;-80
2021/03/02 09:14:53;;;;;;;98.03;43.23;;;;;;;4.28;73.62;100596.27;2175743;81;21138;-79
2021/03/02 09:17:55;;;;;;;105.17;48.50;;;;;;;4.33;72.08;100595.27;2176500;82;21106;-81
2021/03/02 09:20:57;;;;;;;120.73;53.50;;;;;;;4.26;72.25;100596.56;2175640;81;21295;-79
2021/03/02 09:23:58;;;;;;;104.60;44.80;;;;;;;4.29;71.80;100591.59;2176412;81;21268;-81
2021/03/02 09:27:00;;;;;;;110.67;49.27;;;;;;;4.57;71.31;100592.09;2176209;81;21701;-80
2021/03/02 09:30:01;;;;;;;116.83;48.50;;;;;;;4.95;71.62;100582.84;2176969;82;21296;-79
2021/03/02 09:33:02;;;;;;;116.13;53.87;;;;;;;5.07;70.97;100590.05;2176118;81;21146;-78
2021/03/02 09:36:03;;;;;;;113.00;53.07;;;;;;;5.22;69.33;100601.38;2174752;81;21594;-80
2021/03/02 09:39:04;;;;;;;113.77;51.90;;;;;;;5.19;69.93;100603.75;2175696;82;21467;-80
2021/03/02 09:42:05;;;;;;;112.30;49.97;;;;;;;5.24;69.90;100592.02;2176297;81;21137;-81
2021/03/02 09:45:06;;;;;;;108.07;50.30;;;;;;;5.40;69.90;100597.71;2176479;81;21252;-80
2021/03/02 09:48:09;;;;;;;109.70;50.50;;;;;;;5.37;69.08;100597.13;2177035;81;21288;-81
2021/03/02 09:51:10;;;;;;;115.70;52.13;;;;;;;5.43;68.91;100609.55;2177226;81;21237;-81
2021/03/02 09:54:11;;;;;;;108.90;50.43;;;;;;;5.51;69.07;100607.41;2177276;81;21276;-80
2021/03/02 09:57:12;;;;;;;106.70;50.53;;;;;;;5.65;69.28;100611.32;2176448;81;21114;-81
2021/03/02 10:00:13;;;;;;;110.63;53.67;;;;;;;5.74;68.37;100615.75;2177298;81;21452;-79
2021/03/02 10:03:14;;;;;;;101.57;48.27;;;;;;;5.76;68.24;100619.73;2176547;81;21252;-79
2021/03/02 10:06:15;;;;;;;110.30;51.23;;;;;;;5.82;67.94;100607.53;2176432;82;21308;-79
2021/03/02 10:09:16;;;;;;;107.73;50.87;;;;;;;5.93;67.78;100608.68;2176462;82;21966;-79
2021/03/02 10:12:17;;;;;;;103.80;52.40;;;;;;;5.99;67.61;100609.03;2176275;81;21293;-81
2021/03/02 10:15:18;;;;;;;114.50;52.50;;;;;;;6.03;67.87;100611.41;2176445;81;21280;-80
2021/03/02 10:18:19;;;;;;;96.27;46.67;;;;;;;6.32;66.89;100612.70;2177411;81;21228;-80
2021/03/02 10:21:20;;;;;;;106.77;49.67;;;;;;;6.32;66.89;100612.70;2177071;81;21268;-79
2021/03/02 10:24:22;;;;;;;99.63;47.70;;;;;;;6.42;66.62;100613.22;2176677;81;21129;-81
2021/03/02 10:27:23;;;;;;;88.90;46.30;;;;;;;6.51;66.13;100617.22;2177503;81;21574;-79
2021/03/02 10:30:24;;;;;;;95.07;47.73;;;;;;;6.57;65.83;100613.67;2176297;81;21118;-79
2021/03/02 10:33:25;;;;;;;90.73;47.20;;;;;;;6.62;65.27;100608.33;2175909;81;21267;-79
2021/03/02 10:36:27;;;;;;;90.67;47.93;;;;;;;6.71;65.45;100609.24;2175208;81;21196;-80
2021/03/02 10:39:28;;;;;;;91.43;45.33;;;;;;;6.79;65.01;100619.64;2175289;81;21770;-80
2021/03/02 10:42:29;;;;;;;88.10;44.93;;;;;;;6.82;65.18;100617.63;2177243;81;21343;-80
2021/03/02 10:45:30;;;;;;;76.57;40.63;;;;;;;6.96;64.54;100610.21;2176928;81;21886;-80
2021/03/02 10:48:31;;;;;;;77.50;42.30;;;;;;;7.12;64.58;100610.63;2174428;81;21347;-77
2021/03/02 10:51:32;;;;;;;89.87;46.53;;;;;;;7.26;64.12;100602.75;2175111;81;21256;-78
2021/03/02 10:54:33;;;;;;;78.40;42.30;;;;;;;7.40;63.41;100609.98;2175843;81;22031;-77
2021/03/02 10:57:34;;;;;;;78.77;42.47;;;;;;;7.53;63.70;100602.41;2175112;81;21122;-78
2021/03/02 11:00:35;;;;;;;70.27;39.87;;;;;;;7.66;64.21;100589.23;2175831;81;21254;-79
2021/03/02 11:03:36;;;;;;;72.90;39.67;;;;;;;7.82;61.87;100597.03;2176258;82;21640;-77
2021/03/02 11:06:38;;;;;;;73.07;40.50;;;;;;;7.93;61.39;100591.95;2175637;82;21153;-78
2021/03/02 11:09:39;;;;;;;60.40;35.43;;;;;;;7.96;60.92;100586.02;2174421;81;21613;-78
2021/03/02 11:12:40;;;;;;;61.50;35.43;;;;;;;8.03;61.02;100573.80;2175206;81;21150;-78
2021/03/02 11:15:41;;;;;;;53.37;31.47;;;;;;;8.10;60.69;100565.48;2175423;81;21272;-79
2021/03/02 11:18:42;;;;;;;60.43;35.53;;;;;;;8.18;57.92;100564.55;2174519;81;21257;-79
2021/03/02 11:21:43;;;;;;;60.30;33.50;;;;;;;8.34;59.23;100560.61;2174577;81;21126;-77
2021/03/02 11:24:44;;;;;;;57.90;34.20;;;;;;;8.55;59.68;100551.21;2174442;81;21267;-78
2021/03/02 11:27:45;;;;;;;56.23;33.00;;;;;;;8.78;58.60;100544.50;2174830;81;21296;-79
2021/03/02 11:30:46;;;;;;;53.63;32.03;;;;;;;9.37;61.10;100541.47;2173978;81;21400;-78
2021/03/02 11:33:47;;;;;;;52.07;31.63;;;;;;;9.55;54.73;100532.77;2174258;81;21244;-77
2021/03/02 11:36:48;;;;;;;47.70;29.43;;;;;;;9.40;56.34;100530.77;2174809;81;21126;-77
2021/03/02 11:39:50;;;;;;;54.97;31.70;;;;;;;9.34;54.67;100534.83;2174599;81;21138;-77
2021/03/02 11:42:52;;;;;;;51.10;31.77;;;;;;;9.30;55.73;100533.80;2173965;81;21256;-77
2021/03/02 11:45:53;;;;;;;56.20;32.53;;;;;;;9.38;55.79;100538.05;2175456;81;21083;-77
2021/03/02 11:48:54;;;;;;;50.23;30.20;;;;;;;9.33;55.85;100533.05;2175066;81;21259;-78
2021/03/02 11:51:55;;;;;;;49.43;30.77;;;;;;;9.33;55.10;100530.44;2175923;81;21318;-78
2021/03/02 11:54:56;;;;;;;45.23;29.17;;;;;;;9.36;55.58;100522.34;2175216;81;21276;-76
2021/03/02 11:57:58;;;;;;;44.10;28.93;;;;;;;9.52;54.26;100530.41;2174960;81;21145;-76
2021/03/02 12:00:59;;;;;;;43.50;27.23;;;;;;;9.51;51.87;100521.69;2175704;81;21145;-79
2021/03/02 12:04:00;;;;;;;45.30;27.80;;;;;;;9.55;50.77;100514.52;2175917;81;21126;-78
2021/03/02 12:07:01;;;;;;;46.83;25.97;;;;;;;9.69;53.55;100511.59;2175544;81;21184;-77
2021/03/02 12:10:02;;;;;;;41.37;25.27;;;;;;;9.77;50.65;100508.89;2175416;81;21256;-80
2021/03/02 12:13:03;;;;;;;48.17;30.40;;;;;;;9.90;53.19;100500.74;2175549;81;21582;-78
2021/03/02 12:16:05;;;;;;;37.00;24.80;;;;;;;10.00;52.06;100500.28;2176487;81;21154;-76
2021/03/02 12:19:06;;;;;;;50.03;28.53;;;;;;;10.05;51.88;100497.86;2175480;81;21244;-76
2021/03/02 12:22:07;;;;;;;54.60;29.93;;;;;;;10.08;51.43;100494.96;2175695;81;21137;-78
2021/03/02 12:25:08;;;;;;;48.27;27.97;;;;;;;10.20;52.92;100492.88;2175178;81;21114;-77
2021/03/02 12:28:09;;;;;;;44.77;28.13;;;;;;;10.24;50.90;100487.36;2174828;81;21276;-78
2021/03/02 12:31:10;;;;;;;36.30;22.33;;;;;;;10.31;50.74;100489.79;2175251;81;21315;-76
2021/03/02 12:34:11;;;;;;;44.17;27.73;;;;;;;10.35;49.70;100492.58;2175211;81;21252;-78
2021/03/02 12:37:12;;;;;;;45.60;27.60;;;;;;;10.32;49.46;100483.73;2174368;81;21264;-77
2021/03/02 12:40:14;;;;;;;46.40;28.90;;;;;;;10.42;49.21;100482.88;2175044;81;21246;-78
2021/03/02 12:43:15;;;;;;;41.20;28.00;;;;;;;10.43;48.63;100479.86;2174761;81;21137;-77
2021/03/02 12:46:16;;;;;;;43.63;26.43;;;;;;;10.46;49.11;100477.36;2173776;82;21840;-77
2021/03/02 12:49:17;;;;;;;49.05;25.27;;;;;;;10.51;49.56;100475.40;2174672;81;21276;-77
2021/03/02 12:52:18;;;;;;;39.53;25.73;;;;;;;10.56;49.54;100469.05;2174388;81;21127;-78
2021/03/02 12:55:19;;;;;;;39.55;23.25;;;;;;;10.69;49.91;100469.09;2174024;81;21102;-77
2021/03/02 12:58:20;;;;;;;34.90;22.40;;;;;;;10.85;49.27;100467.51;2174412;81;21264;-77
2021/03/02 13:01:21;;;;;;;33.65;23.40;;;;;;;10.96;47.91;100462.25;2174999;81;21161;-78
2021/03/02 13:04:23;;;;;;;38.90;25.47;;;;;;;10.96;47.12;100467.48;2173470;81;21261;-77
2021/03/02 13:07:24;;;;;;;39.10;25.27;;;;;;;10.97;46.26;100463.14;2172101;81;21358;-78
2021/03/02 13:10:25;;;;;;;47.73;27.07;;;;;;;10.99;46.85;100461.47;2171703;81;21568;-77
2021/03/02 13:13:26;;;;;;;37.00;23.22;;;;;;;11.04;48.75;100455.99;2172972;81;21933;-78
2021/03/02 13:16:29;;;;;;;37.33;23.57;;;;;;;11.09;45.41;100457.94;2173744;82;21264;-77
2021/03/02 13:19:30;;;;;;;31.97;22.17;;;;;;;11.11;46.17;100448.42;2174439;81;21253;-78
2021/03/02 13:22:31;;;;;;;32.65;21.75;;;;;;;11.12;45.76;100457.16;2175440;81;21258;-78
2021/03/02 13:25:32;;;;;;;35.52;21.52;;;;;;;11.11;46.04;100451.03;2175049;81;21273;-78
2021/03/02 13:28:33;;;;;;;36.53;23.20;;;;;;;11.14;44.88;100451.56;2175983;81;21300;-81
2021/03/02 13:31:34;;;;;;;34.13;21.90;;;;;;;11.20;47.09;100447.85;2175173;81;21582;-79
2021/03/02 13:34:35;;;;;;;26.85;18.82;;;;;;;11.29;46.75;100446.89;2175255;81;21135;-81
2021/03/02 13:37:37;;;;;;;21.62;15.15;;;;;;;11.28;45.39;100438.58;2175389;81;21144;-80
2021/03/02 13:40:38;;;;;;;22.80;15.77;;;;;;;11.31;41.99;100433.45;2174961;81;21272;-80
2021/03/02 13:43:39;;;;;;;25.62;17.17;;;;;;;11.34;43.44;100430.95;2176230;81;21163;-79
2021/03/02 13:46:41;;;;;;;33.18;18.98;;;;;;;11.41;42.18;100434.66;2176060;81;21284;-80